sensor_id;sensor_type;location;lat;lon;timestamp;pressure;altitude;pressure_sealevel;temperature;humidity
8298;BME280;4187;42.778;23.242;2023-09-18T00:01:55;95784.91;;;17.43;100.00
8298;BME280;4187;42.778;23.242;2023-09-18T00:04:23;95790.94;;;17.37;100.00
8298;BME280;4187;42.778;23.242;2023-09-18T00:06:50;95785.81;;;17.27;100.00
8298;BME280;4187;42.778;23.242;2023-09-18T00:09:17;95778.47;;;17.29;100.00
8298;BME280;4187;42.778;23.242;2023-09-18T00:11:43;95778.88;;;17.10;100.00
8298;BME280;4187;42.778;23.242;2023-09-18T00:14:10;95784.22;;;17.02;100.00
8298;BME280;4187;42.778;23.242;2023-09-18T00:16:40;95795.25;;;16.99;100.00
8298;BME280;4187;42.778;23.242;2023-09-18T00:19:08;95788.59;;;16.95;100.00
8298;BME280;4187;42.778;23.242;2023-09-18T00:21:36;95782.63;;;16.77;100.00
8298;BME280;4187;42.778;23.242;2023-09-18T00:24:03;95762.50;;;16.66;100.00
8298;BME280;4187;42.778;23.242;2023-09-18T00:26:31;95778.31;;;16.76;100.00
8298;BME280;4187;42.778;23.242;2023-09-18T00:29:00;95780.31;;;16.73;100.00
8298;BME280;4187;42.778;23.242;2023-09-18T00:31:27;95780.31;;;16.73;100.00
8298;BME280;4187;42.778;23.242;2023-09-18T00:33:54;95783.81;;;16.74;100.00
8298;BME280;4187;42.778;23.242;2023-09-18T00:36:23;95780.31;;;16.73;100.00
8298;BME280;4187;42.778;23.242;2023-09-18T00:38:50;95765.81;;;16.76;100.00
8298;BME280;4187;42.778;23.242;2023-09-18T00:41:17;95781.69;;;17.16;100.00
8298;BME280;4187;42.778;23.242;2023-09-18T00:43:44;95775.84;;;17.82;100.00
8298;BME280;4187;42.778;23.242;2023-09-18T00:46:11;95785.88;;;18.26;100.00
8298;BME280;4187;42.778;23.242;2023-09-18T00:48:38;95788.78;;;18.62;100.00
8298;BME280;4187;42.778;23.242;2023-09-18T00:51:06;95794.03;;;18.70;100.00
8298;BME280;4187;42.778;23.242;2023-09-18T00:53:37;95790.97;;;18.58;100.00
8298;BME280;4187;42.778;23.242;2023-09-18T00:56:04;95789.06;;;18.44;100.00
8298;BME280;4187;42.778;23.242;2023-09-18T00:58:32;95788.84;;;18.31;100.00
8298;BME280;4187;42.778;23.242;2023-09-18T01:01:00;95791.13;;;18.19;100.00
8298;BME280;4187;42.778;23.242;2023-09-18T01:03:27;95787.53;;;18.04;100.00
8298;BME280;4187;42.778;23.242;2023-09-18T01:05:54;95792.06;;;18.04;100.00
8298;BME280;4187;42.778;23.242;2023-09-18T01:08:22;95789.09;;;17.99;100.00
8298;BME280;4187;42.778;23.242;2023-09-18T01:10:56;95793.94;;;17.95;100.00
8298;BME280;4187;42.778;23.242;2023-09-18T01:13:31;95799.69;;;17.61;100.00
8298;BME280;4187;42.778;23.242;2023-09-18T01:16:04;95800.41;;;17.39;100.00
8298;BME280;4187;42.778;23.242;2023-09-18T01:18:35;95800.47;;;17.23;100.00
8298;BME280;4187;42.778;23.242;2023-09-18T01:21:02;95783.25;;;17.03;100.00
8298;BME280;4187;42.778;23.242;2023-09-18T01:23:31;95794.09;;;16.93;100.00
8298;BME280;4187;42.778;23.242;2023-09-18T01:25:58;95791.63;;;16.84;100.00
8298;BME280;4187;42.778;23.242;2023-09-18T01:28:25;95788.16;;;16.75;100.00
8298;BME280;4187;42.778;23.242;2023-09-18T01:30:52;95788.69;;;16.54;100.00
8298;BME280;4187;42.778;23.242;2023-09-18T01:33:20;95792.31;;;16.45;100.00
8298;BME280;4187;42.778;23.242;2023-09-18T01:35:49;95789.81;;;16.36;100.00
8298;BME280;4187;42.778;23.242;2023-09-18T01:38:17;95787.53;;;16.33;100.00
8298;BME280;4187;42.778;23.242;2023-09-18T01:40:46;95797.81;;;16.36;100.00
8298;BME280;4187;42.778;23.242;2023-09-18T01:43:13;95798.16;;;16.41;100.00
8298;BME280;4187;42.778;23.242;2023-09-18T01:45:40;95801.00;;;16.55;100.00
8298;BME280;4187;42.778;23.242;2023-09-18T01:48:08;95794.50;;;16.58;100.00
8298;BME280;4187;42.778;23.242;2023-09-18T01:50:36;95798.31;;;16.63;100.00
8298;BME280;4187;42.778;23.242;2023-09-18T01:53:05;95799.66;;;16.76;100.00
8298;BME280;4187;42.778;23.242;2023-09-18T01:55:33;95799.31;;;16.79;100.00
8298;BME280;4187;42.778;23.242;2023-09-18T01:58:01;95806.44;;;16.86;100.00
8298;BME280;4187;42.778;23.242;2023-09-18T02:00:29;95805.94;;;16.91;100.00
8298;BME280;4187;42.778;23.242;2023-09-18T02:02:56;95813.78;;;16.92;100.00
8298;BME280;4187;42.778;23.242;2023-09-18T02:05:23;95807.59;;;16.92;100.00
8298;BME280;4187;42.778;23.242;2023-09-18T02:07:50;95810.41;;;16.90;100.00
8298;BME280;4187;42.778;23.242;2023-09-18T02:10:17;95806.75;;;16.91;100.00
8298;BME280;4187;42.778;23.242;2023-09-18T02:12:44;95812.75;;;16.93;100.00
8298;BME280;4187;42.778;23.242;2023-09-18T02:15:14;95807.91;;;16.97;100.00
8298;BME280;4187;42.778;23.242;2023-09-18T02:17:42;95811.56;;;16.96;100.00
8298;BME280;4187;42.778;23.242;2023-09-18T02:20:10;95769.81;;;16.72;100.00
8298;BME280;4187;42.778;23.242;2023-09-18T02:22:38;95808.41;;;17.00;100.00
8298;BME280;4187;42.778;23.242;2023-09-18T02:25:06;95811.88;;;17.01;100.00
8298;BME280;4187;42.778;23.242;2023-09-18T02:27:33;95811.25;;;16.99;100.00
8298;BME280;4187;42.778;23.242;2023-09-18T02:30:00;95801.41;;;16.99;100.00
8298;BME280;4187;42.778;23.242;2023-09-18T02:35:02;95788.09;;;16.99;100.00
8298;BME280;4187;42.778;23.242;2023-09-18T02:37:29;95777.09;;;16.94;100.00
8298;BME280;4187;42.778;23.242;2023-09-18T02:39:56;95794.72;;;17.03;100.00
8298;BME280;4187;42.778;23.242;2023-09-18T02:42:23;95782.75;;;16.99;100.00
8298;BME280;4187;42.778;23.242;2023-09-18T02:44:50;95806.53;;;17.09;100.00
8298;BME280;4187;42.778;23.242;2023-09-18T02:47:17;95801.19;;;17.09;100.00
8298;BME280;4187;42.778;23.242;2023-09-18T02:49:43;95802.38;;;17.06;100.00
8298;BME280;4187;42.778;23.242;2023-09-18T02:52:12;95800.22;;;17.10;100.00
8298;BME280;4187;42.778;23.242;2023-09-18T02:54:38;95798.53;;;17.09;100.00
8298;BME280;4187;42.778;23.242;2023-09-18T02:57:05;95802.88;;;17.10;100.00
8298;BME280;4187;42.778;23.242;2023-09-18T02:59:32;95800.22;;;17.10;100.00
8298;BME280;4187;42.778;23.242;2023-09-18T03:01:59;95808.53;;;17.15;100.00
8298;BME280;4187;42.778;23.242;2023-09-18T03:04:26;95803.22;;;17.07;100.00
8298;BME280;4187;42.778;23.242;2023-09-18T03:06:53;95792.25;;;16.94;100.00
8298;BME280;4187;42.778;23.242;2023-09-18T03:09:21;95816.22;;;17.10;100.00
8298;BME280;4187;42.778;23.242;2023-09-18T03:11:50;95803.88;;;17.09;100.00
8298;BME280;4187;42.778;23.242;2023-09-18T03:14:17;95812.38;;;17.12;100.00
8298;BME280;4187;42.778;23.242;2023-09-18T03:16:44;95816.19;;;17.18;100.00
8298;BME280;4187;42.778;23.242;2023-09-18T03:19:11;95799.69;;;17.14;100.00
8298;BME280;4187;42.778;23.242;2023-09-18T03:21:38;95809.66;;;17.20;100.00
8298;BME280;4187;42.778;23.242;2023-09-18T03:24:05;95812.22;;;17.14;100.00
8298;BME280;4187;42.778;23.242;2023-09-18T03:26:34;95814.56;;;17.01;100.00
8298;BME280;4187;42.778;23.242;2023-09-18T03:29:00;95805.63;;;16.86;100.00
8298;BME280;4187;42.778;23.242;2023-09-18T03:31:27;95803.94;;;16.85;100.00
8298;BME280;4187;42.778;23.242;2023-09-18T03:33:54;95806.28;;;16.80;100.00
8298;BME280;4187;42.778;23.242;2023-09-18T03:36:21;95801.28;;;16.77;100.00
8298;BME280;4187;42.778;23.242;2023-09-18T03:38:49;95801.28;;;16.77;100.00
8298;BME280;4187;42.778;23.242;2023-09-18T03:41:16;95798.81;;;16.75;100.00
8298;BME280;4187;42.778;23.242;2023-09-18T03:43:44;95799.78;;;16.74;100.00
8298;BME280;4187;42.778;23.242;2023-09-18T03:46:11;95798.31;;;16.71;100.00
8298;BME280;4187;42.778;23.242;2023-09-18T03:48:37;95789.66;;;16.61;100.00
8298;BME280;4187;42.778;23.242;2023-09-18T03:51:05;95789.00;;;16.59;100.00
8298;BME280;4187;42.778;23.242;2023-09-18T03:53:32;95791.69;;;16.59;100.00
8298;BME280;4187;42.778;23.242;2023-09-18T03:55:59;95798.84;;;16.59;100.00
8298;BME280;4187;42.778;23.242;2023-09-18T03:58:26;95794.69;;;16.56;100.00
8298;BME280;4187;42.778;23.242;2023-09-18T04:00:55;95793.31;;;16.52;100.00
8298;BME280;4187;42.778;23.242;2023-09-18T04:03:22;95796.84;;;16.53;100.00
8298;BME280;4187;42.778;23.242;2023-09-18T04:05:49;95793.31;;;16.52;100.00
8298;BME280;4187;42.778;23.242;2023-09-18T04:08:16;95788.31;;;16.49;100.00
8298;BME280;4187;42.778;23.242;2023-09-18T04:10:42;95795.31;;;16.50;100.00
8298;BME280;4187;42.778;23.242;2023-09-18T04:13:10;95797.50;;;16.55;100.00
8298;BME280;4187;42.778;23.242;2023-09-18T04:15:37;95790.00;;;16.50;100.00
8298;BME280;4187;42.778;23.242;2023-09-18T04:18:06;95803.97;;;16.60;100.00
8298;BME280;4187;42.778;23.242;2023-09-18T04:20:32;95802.16;;;16.61;100.00
8298;BME280;4187;42.778;23.242;2023-09-18T04:23:21;95794.19;;;16.53;100.00
8298;BME280;4187;42.778;23.242;2023-09-18T04:25:48;95808.84;;;16.65;100.00
8298;BME280;4187;42.778;23.242;2023-09-18T04:28:16;95810.31;;;16.67;100.00
8298;BME280;4187;42.778;23.242;2023-09-18T04:30:44;95808.47;;;16.68;100.00
8298;BME280;4187;42.778;23.242;2023-09-18T04:33:12;95799.47;;;16.69;100.00
8298;BME280;4187;42.778;23.242;2023-09-18T04:35:39;95811.81;;;16.70;100.00
8298;BME280;4187;42.778;23.242;2023-09-18T04:38:06;95810.13;;;16.69;100.00
8298;BME280;4187;42.778;23.242;2023-09-18T04:40:34;95817.13;;;16.86;100.00
8298;BME280;4187;42.778;23.242;2023-09-18T04:43:00;95806.34;;;17.18;100.00
8298;BME280;4187;42.778;23.242;2023-09-18T04:45:30;95817.88;;;17.58;100.00
8298;BME280;4187;42.778;23.242;2023-09-18T04:47:57;95825.53;;;17.91;100.00
8298;BME280;4187;42.778;23.242;2023-09-18T04:50:25;95820.38;;;18.13;100.00
8298;BME280;4187;42.778;23.242;2023-09-18T04:52:53;95832.06;;;18.12;100.00
8298;BME280;4187;42.778;23.242;2023-09-18T04:55:21;95827.81;;;18.03;100.00
8298;BME280;4187;42.778;23.242;2023-09-18T04:57:48;95839.44;;;17.79;100.00
8298;BME280;4187;42.778;23.242;2023-09-18T05:00:15;95825.41;;;17.54;100.00
8298;BME280;4187;42.778;23.242;2023-09-18T05:02:42;95818.75;;;17.42;100.00
8298;BME280;4187;42.778;23.242;2023-09-18T05:05:11;95824.69;;;17.21;100.00
8298;BME280;4187;42.778;23.242;2023-09-18T05:07:40;95811.53;;;17.12;100.00
8298;BME280;4187;42.778;23.242;2023-09-18T05:10:08;95812.22;;;17.06;100.00
8298;BME280;4187;42.778;23.242;2023-09-18T05:12:34;95818.63;;;17.27;100.00
8298;BME280;4187;42.778;23.242;2023-09-18T05:15:01;95814.63;;;17.31;100.00
8298;BME280;4187;42.778;23.242;2023-09-18T05:17:40;95807.16;;;17.27;100.00
8298;BME280;4187;42.778;23.242;2023-09-18T05:20:12;95816.47;;;17.31;100.00
8298;BME280;4187;42.778;23.242;2023-09-18T05:22:42;95823.78;;;17.37;100.00
8298;BME280;4187;42.778;23.242;2023-09-18T05:25:10;95827.59;;;17.43;100.00
8298;BME280;4187;42.778;23.242;2023-09-18T05:27:40;95829.06;;;17.53;100.00
8298;BME280;4187;42.778;23.242;2023-09-18T05:30:14;95822.69;;;17.62;100.00
8298;BME280;4187;42.778;23.242;2023-09-18T05:32:41;95828.69;;;17.64;100.00
8298;BME280;4187;42.778;23.242;2023-09-18T05:35:08;95828.19;;;17.61;100.00
8298;BME280;4187;42.778;23.242;2023-09-18T05:37:38;95823.41;;;17.56;100.00
8298;BME280;4187;42.778;23.242;2023-09-18T05:40:08;95821.97;;;17.68;100.00
8298;BME280;4187;42.778;23.242;2023-09-18T05:42:35;95826.59;;;17.82;100.00
8298;BME280;4187;42.778;23.242;2023-09-18T05:45:03;95821.13;;;17.99;100.00
8298;BME280;4187;42.778;23.242;2023-09-18T05:47:32;95821.38;;;18.12;100.00
8298;BME280;4187;42.778;23.242;2023-09-18T05:49:59;95834.63;;;18.28;100.00
8298;BME280;4187;42.778;23.242;2023-09-18T05:52:26;95840.25;;;18.33;100.00
8298;BME280;4187;42.778;23.242;2023-09-18T05:54:53;95832.56;;;18.38;100.00
8298;BME280;4187;42.778;23.242;2023-09-18T05:57:21;95809.25;;;18.46;100.00
8298;BME280;4187;42.778;23.242;2023-09-18T05:59:48;95826.28;;;18.68;100.00
8298;BME280;4187;42.778;23.242;2023-09-18T06:02:14;95833.78;;;18.87;100.00
8298;BME280;4187;42.778;23.242;2023-09-18T06:04:42;95833.19;;;19.00;100.00
8298;BME280;4187;42.778;23.242;2023-09-18T06:07:12;95831.91;;;19.10;100.00
8298;BME280;4187;42.778;23.242;2023-09-18T06:09:40;95833.19;;;19.29;100.00
8298;BME280;4187;42.778;23.242;2023-09-18T06:12:07;95836.09;;;19.42;100.00
8298;BME280;4187;42.778;23.242;2023-09-18T06:14:36;95840.03;;;19.76;100.00
8298;BME280;4187;42.778;23.242;2023-09-18T06:17:04;95846.06;;;19.99;100.00
8298;BME280;4187;42.778;23.242;2023-09-18T06:19:31;95842.31;;;20.14;100.00
8298;BME280;4187;42.778;23.242;2023-09-18T06:21:58;95845.91;;;20.21;100.00
8298;BME280;4187;42.778;23.242;2023-09-18T06:24:25;95848.88;;;20.48;100.00
8298;BME280;4187;42.778;23.242;2023-09-18T06:26:51;95851.88;;;20.59;100.00
8298;BME280;4187;42.778;23.242;2023-09-18T06:29:18;95849.06;;;20.67;100.00
8298;BME280;4187;42.778;23.242;2023-09-18T06:31:47;95866.53;;;20.63;100.00
8298;BME280;4187;42.778;23.242;2023-09-18T06:34:13;95858.25;;;20.58;100.00
8298;BME280;4187;42.778;23.242;2023-09-18T06:36:40;95856.91;;;20.69;100.00
8298;BME280;4187;42.778;23.242;2023-09-18T06:39:07;95862.38;;;20.82;100.00
8298;BME280;4187;42.778;23.242;2023-09-18T06:41:34;95868.00;;;21.08;100.00
8298;BME280;4187;42.778;23.242;2023-09-18T06:44:01;95863.19;;;21.31;100.00
8298;BME280;4187;42.778;23.242;2023-09-18T06:46:29;95864.66;;;21.34;100.00
8298;BME280;4187;42.778;23.242;2023-09-18T06:48:57;95871.47;;;21.30;100.00
8298;BME280;4187;42.778;23.242;2023-09-18T06:51:25;95874.00;;;21.38;100.00
8298;BME280;4187;42.778;23.242;2023-09-18T06:53:52;95866.75;;;21.38;100.00
8298;BME280;4187;42.778;23.242;2023-09-18T06:56:19;95868.13;;;21.28;100.00
8298;BME280;4187;42.778;23.242;2023-09-18T06:58:46;95870.16;;;21.19;100.00
8298;BME280;4187;42.778;23.242;2023-09-18T07:01:16;95861.28;;;21.19;100.00
8298;BME280;4187;42.778;23.242;2023-09-18T07:03:44;95863.41;;;21.30;100.00
8298;BME280;4187;42.778;23.242;2023-09-18T07:06:15;95861.44;;;21.45;100.00
8298;BME280;4187;42.778;23.242;2023-09-18T07:08:45;95861.03;;;21.48;100.00
8298;BME280;4187;42.778;23.242;2023-09-18T07:11:12;95863.91;;;21.46;100.00
8298;BME280;4187;42.778;23.242;2023-09-18T07:13:39;95863.13;;;21.53;100.00
8298;BME280;4187;42.778;23.242;2023-09-18T07:16:06;95865.97;;;21.79;100.00
8298;BME280;4187;42.778;23.242;2023-09-18T07:18:33;95866.25;;;21.90;100.00
8298;BME280;4187;42.778;23.242;2023-09-18T07:20:59;95870.66;;;22.04;100.00
8298;BME280;4187;42.778;23.242;2023-09-18T07:23:28;95870.91;;;22.23;100.00
8298;BME280;4187;42.778;23.242;2023-09-18T07:25:55;95874.44;;;22.23;100.00
8298;BME280;4187;42.778;23.242;2023-09-18T07:28:23;95878.31;;;22.08;100.00
8298;BME280;4187;42.778;23.242;2023-09-18T07:30:50;95875.47;;;22.29;100.00
8298;BME280;4187;42.778;23.242;2023-09-18T07:33:17;95877.19;;;22.43;100.00
8298;BME280;4187;42.778;23.242;2023-09-18T07:35:49;95852.13;;;22.42;100.00
8298;BME280;4187;42.778;23.242;2023-09-18T07:38:19;95875.75;;;22.53;100.00
8298;BME280;4187;42.778;23.242;2023-09-18T07:40:47;95867.53;;;22.68;100.00
8298;BME280;4187;42.778;23.242;2023-09-18T07:43:15;95815.50;;;22.41;100.00
8298;BME280;4187;42.778;23.242;2023-09-18T07:45:42;95876.44;;;22.75;100.00
8298;BME280;4187;42.778;23.242;2023-09-18T07:48:09;95872.53;;;22.97;100.00
8298;BME280;4187;42.778;23.242;2023-09-18T07:50:36;95878.09;;;23.15;100.00
8298;BME280;4187;42.778;23.242;2023-09-18T07:53:03;95872.50;;;23.17;100.00
8298;BME280;4187;42.778;23.242;2023-09-18T07:55:30;95877.50;;;23.40;100.00
8298;BME280;4187;42.778;23.242;2023-09-18T07:57:58;95872.06;;;23.53;100.00
8298;BME280;4187;42.778;23.242;2023-09-18T08:00:25;95880.75;;;23.68;100.00
8298;BME280;4187;42.778;23.242;2023-09-18T08:02:53;95879.47;;;23.84;100.00
8298;BME280;4187;42.778;23.242;2023-09-18T08:05:24;95882.50;;;24.07;100.00
8298;BME280;4187;42.778;23.242;2023-09-18T08:07:53;95884.13;;;24.27;100.00
8298;BME280;4187;42.778;23.242;2023-09-18T08:10:21;95884.41;;;24.44;100.00
8298;BME280;4187;42.778;23.242;2023-09-18T08:12:48;95883.22;;;24.40;100.00
8298;BME280;4187;42.778;23.242;2023-09-18T08:15:18;95875.13;;;24.40;100.00
8298;BME280;4187;42.778;23.242;2023-09-18T08:17:45;95868.63;;;24.48;100.00
8298;BME280;4187;42.778;23.242;2023-09-18T08:20:14;95876.97;;;24.46;100.00
8298;BME280;4187;42.778;23.242;2023-09-18T08:22:41;95878.16;;;24.50;100.00
8298;BME280;4187;42.778;23.242;2023-09-18T08:25:09;95873.63;;;24.44;100.00
8298;BME280;4187;42.778;23.242;2023-09-18T08:27:37;95866.34;;;24.51;100.00
8298;BME280;4187;42.778;23.242;2023-09-18T08:30:06;95878.88;;;24.70;100.00
8298;BME280;4187;42.778;23.242;2023-09-18T08:32:36;95872.81;;;24.81;100.00
8298;BME280;4187;42.778;23.242;2023-09-18T08:35:04;95865.09;;;25.10;100.00
8298;BME280;4187;42.778;23.242;2023-09-18T08:37:31;95860.44;;;25.41;98.41
8298;BME280;4187;42.778;23.242;2023-09-18T08:39:58;95833.41;;;25.48;95.17
8298;BME280;4187;42.778;23.242;2023-09-18T08:42:29;95858.13;;;25.70;96.13
8298;BME280;4187;42.778;23.242;2023-09-18T08:44:58;95816.75;;;25.69;96.46
8298;BME280;4187;42.778;23.242;2023-09-18T08:47:26;95843.69;;;25.94;94.78
8298;BME280;4187;42.778;23.242;2023-09-18T08:49:56;95850.38;;;26.09;94.17
8298;BME280;4187;42.778;23.242;2023-09-18T08:52:25;95854.91;;;25.97;93.34
8298;BME280;4187;42.778;23.242;2023-09-18T08:54:54;95844.69;;;25.81;94.34
8298;BME280;4187;42.778;23.242;2023-09-18T08:57:23;95834.78;;;25.75;95.21
8298;BME280;4187;42.778;23.242;2023-09-18T08:59:52;95838.13;;;26.07;95.59
8298;BME280;4187;42.778;23.242;2023-09-18T09:02:20;95839.25;;;26.36;95.98
8298;BME280;4187;42.778;23.242;2023-09-18T09:04:47;95844.09;;;26.16;91.32
8298;BME280;4187;42.778;23.242;2023-09-18T09:07:16;95835.34;;;25.95;93.66
8298;BME280;4187;42.778;23.242;2023-09-18T09:09:42;95838.38;;;26.05;92.60
8298;BME280;4187;42.778;23.242;2023-09-18T09:12:09;95834.31;;;26.14;91.69
8298;BME280;4187;42.778;23.242;2023-09-18T09:14:36;95832.38;;;26.22;91.95
8298;BME280;4187;42.778;23.242;2023-09-18T09:17:04;95826.19;;;26.44;95.59
8298;BME280;4187;42.778;23.242;2023-09-18T09:19:33;95828.16;;;26.67;89.72
8298;BME280;4187;42.778;23.242;2023-09-18T09:22:02;95824.41;;;26.68;88.54
8298;BME280;4187;42.778;23.242;2023-09-18T09:24:41;95805.69;;;26.66;90.44
8298;BME280;4187;42.778;23.242;2023-09-18T09:27:08;95815.00;;;26.70;87.84
8298;BME280;4187;42.778;23.242;2023-09-18T09:29:36;95806.25;;;26.87;88.54
8298;BME280;4187;42.778;23.242;2023-09-18T09:32:13;95817.22;;;27.03;86.18
8298;BME280;4187;42.778;23.242;2023-09-18T09:34:42;95811.88;;;26.85;85.76
8298;BME280;4187;42.778;23.242;2023-09-18T09:37:09;95807.88;;;26.88;85.84
8298;BME280;4187;42.778;23.242;2023-09-18T09:39:47;95808.94;;;26.98;85.47
8298;BME280;4187;42.778;23.242;2023-09-18T09:42:18;95799.22;;;26.67;87.02
8298;BME280;4187;42.778;23.242;2023-09-18T09:44:47;95803.22;;;26.65;86.22
8298;BME280;4187;42.778;23.242;2023-09-18T09:47:14;95798.31;;;26.85;86.95
8298;BME280;4187;42.778;23.242;2023-09-18T09:49:48;95793.88;;;27.02;85.85
8298;BME280;4187;42.778;23.242;2023-09-18T09:52:18;95739.19;;;26.70;84.35
8298;BME280;4187;42.778;23.242;2023-09-18T09:54:48;95802.84;;;27.26;83.71
8298;BME280;4187;42.778;23.242;2023-09-18T09:57:15;95799.91;;;27.27;83.66
8298;BME280;4187;42.778;23.242;2023-09-18T09:59:41;95784.81;;;27.08;83.25
8298;BME280;4187;42.778;23.242;2023-09-18T10:02:10;95780.94;;;27.27;86.53
8298;BME280;4187;42.778;23.242;2023-09-18T10:04:40;95786.47;;;27.56;84.42
8298;BME280;4187;42.778;23.242;2023-09-18T10:07:09;95785.72;;;27.72;82.37
8298;BME280;4187;42.778;23.242;2023-09-18T10:09:39;95773.19;;;27.94;82.51
8298;BME280;4187;42.778;23.242;2023-09-18T10:12:11;95779.09;;;27.91;80.33
8298;BME280;4187;42.778;23.242;2023-09-18T10:14:39;95782.31;;;27.76;80.75
8298;BME280;4187;42.778;23.242;2023-09-18T10:17:14;95772.75;;;27.74;81.44
8298;BME280;4187;42.778;23.242;2023-09-18T10:19:49;95770.22;;;28.07;82.28
8298;BME280;4187;42.778;23.242;2023-09-18T10:22:26;95768.97;;;28.26;79.66
8298;BME280;4187;42.778;23.242;2023-09-18T10:25:06;95758.97;;;28.43;81.57
8298;BME280;4187;42.778;23.242;2023-09-18T10:27:37;95732.75;;;28.66;81.08
8298;BME280;4187;42.778;23.242;2023-09-18T10:30:07;95753.19;;;28.12;78.32
8298;BME280;4187;42.778;23.242;2023-09-18T10:32:37;95746.03;;;28.06;78.51
8298;BME280;4187;42.778;23.242;2023-09-18T10:35:05;95717.88;;;27.95;80.85
8298;BME280;4187;42.778;23.242;2023-09-18T10:37:33;95716.13;;;28.17;81.09
8298;BME280;4187;42.778;23.242;2023-09-18T10:40:02;95732.19;;;28.19;81.21
8298;BME280;4187;42.778;23.242;2023-09-18T10:42:32;95731.34;;;28.46;80.07
8298;BME280;4187;42.778;23.242;2023-09-18T10:45:00;95729.41;;;28.47;78.62
8298;BME280;4187;42.778;23.242;2023-09-18T10:47:30;95705.25;;;28.45;79.26
8298;BME280;4187;42.778;23.242;2023-09-18T10:49:57;95733.31;;;28.23;78.16
8298;BME280;4187;42.778;23.242;2023-09-18T10:52:25;95721.47;;;28.12;79.29
8298;BME280;4187;42.778;23.242;2023-09-18T10:54:52;95725.97;;;28.07;79.08
8298;BME280;4187;42.778;23.242;2023-09-18T10:57:19;95712.47;;;28.40;80.09
8298;BME280;4187;42.778;23.242;2023-09-18T10:59:46;95717.22;;;28.78;78.46
8298;BME280;4187;42.778;23.242;2023-09-18T11:02:16;95700.88;;;28.44;76.93
8298;BME280;4187;42.778;23.242;2023-09-18T11:04:44;95718.34;;;28.20;77.79
8298;BME280;4187;42.778;23.242;2023-09-18T11:07:20;95705.38;;;28.39;79.65
8298;BME280;4187;42.778;23.242;2023-09-18T11:09:48;95703.97;;;28.36;78.17
8298;BME280;4187;42.778;23.242;2023-09-18T11:12:16;95692.69;;;28.11;80.73
8298;BME280;4187;42.778;23.242;2023-09-18T11:14:48;95700.69;;;28.34;78.50
8298;BME280;4187;42.778;23.242;2023-09-18T11:17:35;95680.56;;;28.30;79.63
8298;BME280;4187;42.778;23.242;2023-09-18T11:20:08;95698.91;;;28.57;79.27
8298;BME280;4187;42.778;23.242;2023-09-18T11:22:38;95691.50;;;28.35;76.20
8298;BME280;4187;42.778;23.242;2023-09-18T11:25:35;95683.25;;;28.47;76.88
8298;BME280;4187;42.778;23.242;2023-09-18T11:28:05;95679.19;;;28.78;77.34
8298;BME280;4187;42.778;23.242;2023-09-18T11:30:33;95688.16;;;28.95;74.86
8298;BME280;4187;42.778;23.242;2023-09-18T11:33:04;95674.38;;;29.01;75.69
8298;BME280;4187;42.778;23.242;2023-09-18T11:35:31;95685.72;;;28.98;76.02
8298;BME280;4187;42.778;23.242;2023-09-18T11:38:06;95683.78;;;28.94;75.16
8298;BME280;4187;42.778;23.242;2023-09-18T11:40:35;95680.63;;;29.02;75.05
8298;BME280;4187;42.778;23.242;2023-09-18T11:43:21;95670.25;;;28.99;75.83
8298;BME280;4187;42.778;23.242;2023-09-18T11:45:53;95669.47;;;28.82;74.48
8298;BME280;4187;42.778;23.242;2023-09-18T11:48:22;95650.53;;;28.54;74.98
8298;BME280;4187;42.778;23.242;2023-09-18T11:50:56;95682.56;;;28.68;75.87
8298;BME280;4187;42.778;23.242;2023-09-18T11:53:24;95668.09;;;28.63;75.73
8298;BME280;4187;42.778;23.242;2023-09-18T11:55:51;95658.50;;;28.77;76.90
8298;BME280;4187;42.778;23.242;2023-09-18T11:58:18;95674.84;;;28.98;75.60
8298;BME280;4187;42.778;23.242;2023-09-18T12:00:49;95672.47;;;29.02;75.00
8298;BME280;4187;42.778;23.242;2023-09-18T12:03:17;95664.75;;;28.94;76.52
8298;BME280;4187;42.778;23.242;2023-09-18T12:05:52;95665.00;;;28.92;73.81
8298;BME280;4187;42.778;23.242;2023-09-18T12:08:20;95658.00;;;28.80;76.04
8298;BME280;4187;42.778;23.242;2023-09-18T12:10:49;95662.59;;;28.96;73.62
8298;BME280;4187;42.778;23.242;2023-09-18T12:13:16;95658.19;;;28.90;74.91
8298;BME280;4187;42.778;23.242;2023-09-18T12:15:43;95656.53;;;28.89;74.85
8298;BME280;4187;42.778;23.242;2023-09-18T12:18:11;95656.09;;;28.97;74.93
8298;BME280;4187;42.778;23.242;2023-09-18T12:20:45;95652.09;;;28.83;74.83
8298;BME280;4187;42.778;23.242;2023-09-18T12:23:13;95645.50;;;28.45;76.29
8298;BME280;4187;42.778;23.242;2023-09-18T12:25:40;95653.97;;;28.66;76.52
8298;BME280;4187;42.778;23.242;2023-09-18T12:28:07;95633.56;;;28.63;78.26
8298;BME280;4187;42.778;23.242;2023-09-18T12:30:34;95646.84;;;28.76;77.30
8298;BME280;4187;42.778;23.242;2023-09-18T12:33:01;95649.38;;;28.83;76.43
8298;BME280;4187;42.778;23.242;2023-09-18T12:35:29;95644.25;;;29.03;78.20
8298;BME280;4187;42.778;23.242;2023-09-18T12:37:57;95653.25;;;28.87;74.99
8298;BME280;4187;42.778;23.242;2023-09-18T12:40:26;95650.03;;;28.57;74.43
8298;BME280;4187;42.778;23.242;2023-09-18T12:42:55;95636.53;;;28.62;76.58
8298;BME280;4187;42.778;23.242;2023-09-18T12:45:22;95645.31;;;28.85;73.91
8298;BME280;4187;42.778;23.242;2023-09-18T12:47:50;95641.75;;;29.01;74.28
8298;BME280;4187;42.778;23.242;2023-09-18T12:50:17;95639.81;;;29.35;74.31
8298;BME280;4187;42.778;23.242;2023-09-18T12:52:44;95642.63;;;29.45;72.93
8298;BME280;4187;42.778;23.242;2023-09-18T12:55:21;95638.38;;;29.11;74.07
8298;BME280;4187;42.778;23.242;2023-09-18T12:57:50;95622.69;;;29.18;77.47
8298;BME280;4187;42.778;23.242;2023-09-18T13:00:19;95629.94;;;29.29;77.04
8298;BME280;4187;42.778;23.242;2023-09-18T13:02:46;95634.38;;;29.35;77.46
8298;BME280;4187;42.778;23.242;2023-09-18T13:05:19;95629.31;;;29.44;77.70
8298;BME280;4187;42.778;23.242;2023-09-18T13:07:46;95632.22;;;29.37;77.02
8298;BME280;4187;42.778;23.242;2023-09-18T13:10:13;95620.56;;;29.42;77.78
8298;BME280;4187;42.778;23.242;2023-09-18T13:12:42;95627.91;;;29.41;75.62
8298;BME280;4187;42.778;23.242;2023-09-18T13:15:10;95626.38;;;29.29;75.30